sensor_id;sensor_type;location;lat;lon;timestamp;pressure;altitude;pressure_sealevel;temperature
71463;BMP180;59266;52.608;13.260;2023-02-13T00:00:48;103264.00;;;7.90
71463;BMP180;59266;52.608;13.260;2023-02-13T00:03:15;103281.00;;;8.00
71463;BMP180;59266;52.608;13.260;2023-02-13T00:05:43;103283.00;;;8.00
71463;BMP180;59266;52.608;13.260;2023-02-13T00:08:10;103294.00;;;7.90
71463;BMP180;59266;52.608;13.260;2023-02-13T00:10:37;103278.00;;;7.80
71463;BMP180;59266;52.608;13.260;2023-02-13T00:13:04;103265.00;;;7.80
71463;BMP180;59266;52.608;13.260;2023-02-13T00:15:31;103280.00;;;7.90
71463;BMP180;59266;52.608;13.260;2023-02-13T00:17:58;103288.00;;;7.80
71463;BMP180;59266;52.608;13.260;2023-02-13T00:20:27;103279.00;;;7.90
71463;BMP180;59266;52.608;13.260;2023-02-13T00:22:54;103282.00;;;7.70
71463;BMP180;59266;52.608;13.260;2023-02-13T00:25:21;103274.00;;;7.80
71463;BMP180;59266;52.608;13.260;2023-02-13T00:27:50;103280.00;;;7.80
71463;BMP180;59266;52.608;13.260;2023-02-13T00:30:18;103263.00;;;7.70
71463;BMP180;59266;52.608;13.260;2023-02-13T00:32:44;103268.00;;;7.80
71463;BMP180;59266;52.608;13.260;2023-02-13T00:35:11;103269.00;;;7.80
71463;BMP180;59266;52.608;13.260;2023-02-13T00:37:38;103282.00;;;7.80
71463;BMP180;59266;52.608;13.260;2023-02-13T00:40:07;103273.00;;;7.80
71463;BMP180;59266;52.608;13.260;2023-02-13T00:42:34;103268.00;;;7.90
71463;BMP180;59266;52.608;13.260;2023-02-13T00:45:01;103271.00;;;7.80
71463;BMP180;59266;52.608;13.260;2023-02-13T00:47:27;103269.00;;;7.70
71463;BMP180;59266;52.608;13.260;2023-02-13T00:49:55;103267.00;;;7.60
71463;BMP180;59266;52.608;13.260;2023-02-13T00:52:23;103261.00;;;7.70
71463;BMP180;59266;52.608;13.260;2023-02-13T00:54:50;103275.00;;;7.60
71463;BMP180;59266;52.608;13.260;2023-02-13T00:57:17;103266.00;;;7.70
71463;BMP180;59266;52.608;13.260;2023-02-13T00:59:44;103265.00;;;7.80
71463;BMP180;59266;52.608;13.260;2023-02-13T01:02:11;103283.00;;;7.80
71463;BMP180;59266;52.608;13.260;2023-02-13T01:04:38;103268.00;;;7.80
71463;BMP180;59266;52.608;13.260;2023-02-13T01:07:05;103285.00;;;7.70
71463;BMP180;59266;52.608;13.260;2023-02-13T01:09:34;103270.00;;;7.80
71463;BMP180;59266;52.608;13.260;2023-02-13T01:12:01;103280.00;;;7.60
71463;BMP180;59266;52.608;13.260;2023-02-13T01:14:30;103282.00;;;7.40
71463;BMP180;59266;52.608;13.260;2023-02-13T01:17:00;103282.00;;;7.50
71463;BMP180;59266;52.608;13.260;2023-02-13T01:19:28;103279.00;;;7.60
71463;BMP180;59266;52.608;13.260;2023-02-13T01:21:55;103284.00;;;7.70
71463;BMP180;59266;52.608;13.260;2023-02-13T01:24:22;103278.00;;;7.60
71463;BMP180;59266;52.608;13.260;2023-02-13T01:26:49;103268.00;;;7.70
71463;BMP180;59266;52.608;13.260;2023-02-13T01:29:16;103280.00;;;7.70
71463;BMP180;59266;52.608;13.260;2023-02-13T01:31:43;103282.00;;;7.70
71463;BMP180;59266;52.608;13.260;2023-02-13T01:34:10;103275.00;;;7.70
71463;BMP180;59266;52.608;13.260;2023-02-13T01:36:37;103269.00;;;7.40
71463;BMP180;59266;52.608;13.260;2023-02-13T01:39:04;103266.00;;;7.40
71463;BMP180;59266;52.608;13.260;2023-02-13T01:41:31;103278.00;;;7.30
71463;BMP180;59266;52.608;13.260;2023-02-13T01:43:59;103265.00;;;7.20
71463;BMP180;59266;52.608;13.260;2023-02-13T01:46:34;103263.00;;;7.30
71463;BMP180;59266;52.608;13.260;2023-02-13T01:49:14;103264.00;;;7.20
71463;BMP180;59266;52.608;13.260;2023-02-13T01:51:45;103265.00;;;7.20
71463;BMP180;59266;52.608;13.260;2023-02-13T01:54:17;103268.00;;;7.20
71463;BMP180;59266;52.608;13.260;2023-02-13T01:56:49;103262.00;;;7.20
71463;BMP180;59266;52.608;13.260;2023-02-13T01:59:30;103277.00;;;7.20
71463;BMP180;59266;52.608;13.260;2023-02-13T02:01:58;103265.00;;;7.20
71463;BMP180;59266;52.608;13.260;2023-02-13T02:04:31;103272.00;;;7.20
71463;BMP180;59266;52.608;13.260;2023-02-13T02:07:03;103267.00;;;7.20
71463;BMP180;59266;52.608;13.260;2023-02-13T02:09:44;103272.00;;;7.30
71463;BMP180;59266;52.608;13.260;2023-02-13T02:12:29;103270.00;;;7.20
71463;BMP180;59266;52.608;13.260;2023-02-13T02:14:59;103265.00;;;7.20
71463;BMP180;59266;52.608;13.260;2023-02-13T02:17:27;103267.00;;;7.10
71463;BMP180;59266;52.608;13.260;2023-02-13T02:33:36;103278.00;;;7.10
71463;BMP180;59266;52.608;13.260;2023-02-13T02:36:50;103272.00;;;7.10
71463;BMP180;59266;52.608;13.260;2023-02-13T02:39:56;103285.00;;;7.00
71463;BMP180;59266;52.608;13.260;2023-02-13T02:42:56;103272.00;;;7.00
71463;BMP180;59266;52.608;13.260;2023-02-13T02:48:22;103286.00;;;7.00
71463;BMP180;59266;52.608;13.260;2023-02-13T02:51:30;103281.00;;;7.10
71463;BMP180;59266;52.608;13.260;2023-02-13T02:54:32;103281.00;;;7.10
71463;BMP180;59266;52.608;13.260;2023-02-13T02:57:28;103264.00;;;7.10
71463;BMP180;59266;52.608;13.260;2023-02-13T03:00:16;103261.00;;;7.10
71463;BMP180;59266;52.608;13.260;2023-02-13T03:03:23;103276.00;;;7.10
71463;BMP180;59266;52.608;13.260;2023-02-13T03:06:21;103266.00;;;7.00
71463;BMP180;59266;52.608;13.260;2023-02-13T03:08:54;103285.00;;;7.10
71463;BMP180;59266;52.608;13.260;2023-02-13T03:11:46;103272.00;;;7.00
71463;BMP180;59266;52.608;13.260;2023-02-13T03:14:33;103273.00;;;7.00
71463;BMP180;59266;52.608;13.260;2023-02-13T03:17:01;103276.00;;;7.10
71463;BMP180;59266;52.608;13.260;2023-02-13T03:20:39;103269.00;;;7.10
71463;BMP180;59266;52.608;13.260;2023-02-13T03:26:17;103280.00;;;7.20
71463;BMP180;59266;52.608;13.260;2023-02-13T03:29:13;103261.00;;;7.10
71463;BMP180;59266;52.608;13.260;2023-02-13T03:32:34;103275.00;;;7.10
71463;BMP180;59266;52.608;13.260;2023-02-13T03:35:26;103274.00;;;7.00
71463;BMP180;59266;52.608;13.260;2023-02-13T03:38:24;103270.00;;;7.10
71463;BMP180;59266;52.608;13.260;2023-02-13T03:41:06;103268.00;;;7.10
71463;BMP180;59266;52.608;13.260;2023-02-13T03:44:17;103269.00;;;7.10
71463;BMP180;59266;52.608;13.260;2023-02-13T03:46:46;103277.00;;;7.00
71463;BMP180;59266;52.608;13.260;2023-02-13T03:49:23;103275.00;;;7.00
71463;BMP180;59266;52.608;13.260;2023-02-13T03:55:06;103269.00;;;6.90
71463;BMP180;59266;52.608;13.260;2023-02-13T03:57:56;103254.00;;;6.80
71463;BMP180;59266;52.608;13.260;2023-02-13T04:00:46;103253.00;;;6.90
71463;BMP180;59266;52.608;13.260;2023-02-13T04:03:36;103261.00;;;6.90
71463;BMP180;59266;52.608;13.260;2023-02-13T04:06:10;103246.00;;;6.90
71463;BMP180;59266;52.608;13.260;2023-02-13T04:08:40;103268.00;;;6.80
71463;BMP180;59266;52.608;13.260;2023-02-13T04:11:17;103260.00;;;6.90
71463;BMP180;59266;52.608;13.260;2023-02-13T04:13:54;103249.00;;;6.90
71463;BMP180;59266;52.608;13.260;2023-02-13T04:16:28;103254.00;;;6.90
71463;BMP180;59266;52.608;13.260;2023-02-13T04:18:58;103255.00;;;7.00
71463;BMP180;59266;52.608;13.260;2023-02-13T04:21:26;103257.00;;;6.90
71463;BMP180;59266;52.608;13.260;2023-02-13T04:23:53;103247.00;;;6.80
71463;BMP180;59266;52.608;13.260;2023-02-13T04:26:22;103252.00;;;6.70
71463;BMP180;59266;52.608;13.260;2023-02-13T04:28:49;103235.00;;;6.90
71463;BMP180;59266;52.608;13.260;2023-02-13T04:31:15;103255.00;;;6.80
71463;BMP180;59266;52.608;13.260;2023-02-13T04:33:42;103253.00;;;6.80
71463;BMP180;59266;52.608;13.260;2023-02-13T04:36:09;103248.00;;;6.80
71463;BMP180;59266;52.608;13.260;2023-02-13T04:38:36;103245.00;;;6.80
71463;BMP180;59266;52.608;13.260;2023-02-13T04:41:03;103250.00;;;6.90
71463;BMP180;59266;52.608;13.260;2023-02-13T04:43:29;103245.00;;;6.80
71463;BMP180;59266;52.608;13.260;2023-02-13T04:45:56;103240.00;;;6.90
71463;BMP180;59266;52.608;13.260;2023-02-13T04:48:23;103239.00;;;6.80
71463;BMP180;59266;52.608;13.260;2023-02-13T04:50:50;103237.00;;;6.80
71463;BMP180;59266;52.608;13.260;2023-02-13T04:53:17;103244.00;;;6.80
71463;BMP180;59266;52.608;13.260;2023-02-13T04:55:44;103239.00;;;6.90
71463;BMP180;59266;52.608;13.260;2023-02-13T04:58:11;103242.00;;;6.90
71463;BMP180;59266;52.608;13.260;2023-02-13T05:00:40;103240.00;;;6.80
71463;BMP180;59266;52.608;13.260;2023-02-13T05:03:09;103251.00;;;6.70
71463;BMP180;59266;52.608;13.260;2023-02-13T05:05:37;103240.00;;;6.80
71463;BMP180;59266;52.608;13.260;2023-02-13T05:08:05;103254.00;;;6.70
71463;BMP180;59266;52.608;13.260;2023-02-13T05:10:35;103240.00;;;6.80
71463;BMP180;59266;52.608;13.260;2023-02-13T05:13:02;103246.00;;;6.70
71463;BMP180;59266;52.608;13.260;2023-02-13T05:15:29;103245.00;;;6.90
71463;BMP180;59266;52.608;13.260;2023-02-13T05:17:57;103233.00;;;6.80
71463;BMP180;59266;52.608;13.260;2023-02-13T05:20:23;103238.00;;;6.80
71463;BMP180;59266;52.608;13.260;2023-02-13T05:22:51;103240.00;;;6.90
71463;BMP180;59266;52.608;13.260;2023-02-13T05:25:39;103235.00;;;6.70
71463;BMP180;59266;52.608;13.260;2023-02-13T05:28:07;103237.00;;;6.80
71463;BMP180;59266;52.608;13.260;2023-02-13T05:30:53;103237.00;;;6.70
71463;BMP180;59266;52.608;13.260;2023-02-13T05:33:23;103230.00;;;6.70
71463;BMP180;59266;52.608;13.260;2023-02-13T05:35:53;103249.00;;;6.80
71463;BMP180;59266;52.608;13.260;2023-02-13T05:38:20;103241.00;;;6.70
71463;BMP180;59266;52.608;13.260;2023-02-13T05:40:46;103236.00;;;6.90
71463;BMP180;59266;52.608;13.260;2023-02-13T05:43:14;103245.00;;;6.80
71463;BMP180;59266;52.608;13.260;2023-02-13T05:45:40;103248.00;;;6.70
71463;BMP180;59266;52.608;13.260;2023-02-13T05:48:07;103233.00;;;6.90
71463;BMP180;59266;52.608;13.260;2023-02-13T05:50:36;103254.00;;;6.80
71463;BMP180;59266;52.608;13.260;2023-02-13T05:53:05;103245.00;;;6.80
71463;BMP180;59266;52.608;13.260;2023-02-13T05:55:38;103244.00;;;6.80
71463;BMP180;59266;52.608;13.260;2023-02-13T05:58:07;103247.00;;;6.80
71463;BMP180;59266;52.608;13.260;2023-02-13T06:00:35;103259.00;;;6.90
71463;BMP180;59266;52.608;13.260;2023-02-13T06:03:02;103267.00;;;6.90
71463;BMP180;59266;52.608;13.260;2023-02-13T06:05:29;103261.00;;;6.90
71463;BMP180;59266;52.608;13.260;2023-02-13T06:07:56;103261.00;;;7.00
71463;BMP180;59266;52.608;13.260;2023-02-13T06:10:22;103273.00;;;6.90
71463;BMP180;59266;52.608;13.260;2023-02-13T06:12:50;103270.00;;;6.90
71463;BMP180;59266;52.608;13.260;2023-02-13T06:15:16;103289.00;;;7.00
71463;BMP180;59266;52.608;13.260;2023-02-13T06:17:43;103282.00;;;6.90
71463;BMP180;59266;52.608;13.260;2023-02-13T06:20:12;103285.00;;;6.90
71463;BMP180;59266;52.608;13.260;2023-02-13T06:22:39;103273.00;;;6.90
71463;BMP180;59266;52.608;13.260;2023-02-13T06:25:09;103272.00;;;6.90
71463;BMP180;59266;52.608;13.260;2023-02-13T06:27:37;103279.00;;;6.90
71463;BMP180;59266;52.608;13.260;2023-02-13T06:30:04;103265.00;;;6.80
71463;BMP180;59266;52.608;13.260;2023-02-13T06:32:32;103279.00;;;6.70
71463;BMP180;59266;52.608;13.260;2023-02-13T06:35:03;103281.00;;;6.80
71463;BMP180;59266;52.608;13.260;2023-02-13T06:37:34;103272.00;;;6.70
71463;BMP180;59266;52.608;13.260;2023-02-13T06:40:01;103276.00;;;6.70
71463;BMP180;59266;52.608;13.260;2023-02-13T06:42:28;103282.00;;;6.70
71463;BMP180;59266;52.608;13.260;2023-02-13T06:44:55;103287.00;;;6.60
71463;BMP180;59266;52.608;13.260;2023-02-13T06:47:24;103274.00;;;6.80
71463;BMP180;59266;52.608;13.260;2023-02-13T06:49:55;103284.00;;;6.70
71463;BMP180;59266;52.608;13.260;2023-02-13T06:52:22;103289.00;;;6.80
71463;BMP180;59266;52.608;13.260;2023-02-13T06:54:49;103294.00;;;6.80
71463;BMP180;59266;52.608;13.260;2023-02-13T06:57:16;103283.00;;;6.80
71463;BMP180;59266;52.608;13.260;2023-02-13T06:59:47;103295.00;;;6.80
71463;BMP180;59266;52.608;13.260;2023-02-13T07:02:14;103298.00;;;6.80
71463;BMP180;59266;52.608;13.260;2023-02-13T07:04:43;103297.00;;;6.80
71463;BMP180;59266;52.608;13.260;2023-02-13T07:07:10;103301.00;;;6.90
71463;BMP180;59266;52.608;13.260;2023-02-13T07:09:38;103308.00;;;6.90
71463;BMP180;59266;52.608;13.260;2023-02-13T07:12:06;103299.00;;;6.90
71463;BMP180;59266;52.608;13.260;2023-02-13T07:14:34;103304.00;;;6.90
71463;BMP180;59266;52.608;13.260;2023-02-13T07:17:01;103312.00;;;6.90
71463;BMP180;59266;52.608;13.260;2023-02-13T07:19:27;103298.00;;;6.80
71463;BMP180;59266;52.608;13.260;2023-02-13T07:21:54;103302.00;;;6.90
71463;BMP180;59266;52.608;13.260;2023-02-13T07:24:21;103317.00;;;6.90
71463;BMP180;59266;52.608;13.260;2023-02-13T07:26:48;103321.00;;;6.90
71463;BMP180;59266;52.608;13.260;2023-02-13T07:29:19;103316.00;;;7.00
71463;BMP180;59266;52.608;13.260;2023-02-13T07:31:46;103333.00;;;7.00
71463;BMP180;59266;52.608;13.260;2023-02-13T07:34:13;103313.00;;;6.90
71463;BMP180;59266;52.608;13.260;2023-02-13T07:36:40;103311.00;;;6.90
71463;BMP180;59266;52.608;13.260;2023-02-13T07:39:07;103327.00;;;7.00
71463;BMP180;59266;52.608;13.260;2023-02-13T07:41:36;103325.00;;;7.00
71463;BMP180;59266;52.608;13.260;2023-02-13T07:44:04;103316.00;;;6.90
71463;BMP180;59266;52.608;13.260;2023-02-13T07:46:32;103321.00;;;7.00
71463;BMP180;59266;52.608;13.260;2023-02-13T07:49:00;103321.00;;;7.00
71463;BMP180;59266;52.608;13.260;2023-02-13T07:51:28;103329.00;;;7.10
71463;BMP180;59266;52.608;13.260;2023-02-13T07:53:56;103318.00;;;7.10
71463;BMP180;59266;52.608;13.260;2023-02-13T07:56:23;103324.00;;;7.10
71463;BMP180;59266;52.608;13.260;2023-02-13T07:58:53;103334.00;;;7.10
71463;BMP180;59266;52.608;13.260;2023-02-13T08:01:20;103328.00;;;7.20
71463;BMP180;59266;52.608;13.260;2023-02-13T08:03:49;103301.00;;;7.20
71463;BMP180;59266;52.608;13.260;2023-02-13T08:06:20;103319.00;;;7.20
71463;BMP180;59266;52.608;13.260;2023-02-13T08:08:50;103327.00;;;7.30
71463;BMP180;59266;52.608;13.260;2023-02-13T08:11:38;103316.00;;;7.30
71463;BMP180;59266;52.608;13.260;2023-02-13T08:14:25;103325.00;;;7.20
71463;BMP180;59266;52.608;13.260;2023-02-13T08:16:52;103331.00;;;7.20
71463;BMP180;59266;52.608;13.260;2023-02-13T08:19:19;103326.00;;;7.20
71463;BMP180;59266;52.608;13.260;2023-02-13T08:21:48;103330.00;;;7.20
71463;BMP180;59266;52.608;13.260;2023-02-13T08:24:15;103324.00;;;7.10
71463;BMP180;59266;52.608;13.260;2023-02-13T08:26:42;103316.00;;;7.20
71463;BMP180;59266;52.608;13.260;2023-02-13T08:29:09;103316.00;;;7.40
71463;BMP180;59266;52.608;13.260;2023-02-13T08:31:38;103328.00;;;7.30
71463;BMP180;59266;52.608;13.260;2023-02-13T08:34:05;103312.00;;;7.50
71463;BMP180;59266;52.608;13.260;2023-02-13T08:36:32;103324.00;;;7.60
71463;BMP180;59266;52.608;13.260;2023-02-13T08:38:59;103326.00;;;7.70
71463;BMP180;59266;52.608;13.260;2023-02-13T08:41:28;103324.00;;;7.60
71463;BMP180;59266;52.608;13.260;2023-02-13T08:43:58;103340.00;;;7.70
71463;BMP180;59266;52.608;13.260;2023-02-13T08:46:25;103324.00;;;7.70
71463;BMP180;59266;52.608;13.260;2023-02-13T08:48:53;103327.00;;;7.60
71463;BMP180;59266;52.608;13.260;2023-02-13T08:51:23;103316.00;;;7.40
71463;BMP180;59266;52.608;13.260;2023-02-13T08:53:52;103324.00;;;7.40
71463;BMP180;59266;52.608;13.260;2023-02-13T08:56:19;103328.00;;;7.50
71463;BMP180;59266;52.608;13.260;2023-02-13T08:58:49;103334.00;;;7.50
71463;BMP180;59266;52.608;13.260;2023-02-13T09:01:20;103320.00;;;7.40
71463;BMP180;59266;52.608;13.260;2023-02-13T09:03:47;103328.00;;;7.40
71463;BMP180;59266;52.608;13.260;2023-02-13T09:06:15;103335.00;;;7.50
71463;BMP180;59266;52.608;13.260;2023-02-13T09:08:41;103337.00;;;7.40
71463;BMP180;59266;52.608;13.260;2023-02-13T09:11:10;103337.00;;;7.40
71463;BMP180;59266;52.608;13.260;2023-02-13T09:13:37;103329.00;;;7.50
71463;BMP180;59266;52.608;13.260;2023-02-13T09:16:10;103331.00;;;7.40
71463;BMP180;59266;52.608;13.260;2023-02-13T09:18:37;103341.00;;;7.60
71463;BMP180;59266;52.608;13.260;2023-02-13T09:21:12;103328.00;;;7.60
71463;BMP180;59266;52.608;13.260;2023-02-13T09:23:40;103332.00;;;7.60
71463;BMP180;59266;52.608;13.260;2023-02-13T09:26:12;103332.00;;;7.70
71463;BMP180;59266;52.608;13.260;2023-02-13T09:28:39;103328.00;;;7.70
71463;BMP180;59266;52.608;13.260;2023-02-13T09:31:17;103342.00;;;7.80
71463;BMP180;59266;52.608;13.260;2023-02-13T09:33:45;103334.00;;;7.60
71463;BMP180;59266;52.608;13.260;2023-02-13T09:36:15;103339.00;;;7.60
71463;BMP180;59266;52.608;13.260;2023-02-13T09:38:50;103347.00;;;7.50
71463;BMP180;59266;52.608;13.260;2023-02-13T09:41:23;103339.00;;;7.60
71463;BMP180;59266;52.608;13.260;2023-02-13T09:44:09;103358.00;;;7.40
71463;BMP180;59266;52.608;13.260;2023-02-13T09:46:39;103354.00;;;7.40
71463;BMP180;59266;52.608;13.260;2023-02-13T09:49:18;103351.00;;;7.60
71463;BMP180;59266;52.608;13.260;2023-02-13T09:51:51;103346.00;;;7.40
71463;BMP180;59266;52.608;13.260;2023-02-13T09:54:22;103347.00;;;7.50
71463;BMP180;59266;52.608;13.260;2023-02-13T09:57:01;103338.00;;;7.60
71463;BMP180;59266;52.608;13.260;2023-02-13T10:02:03;103353.00;;;7.60
71463;BMP180;59266;52.608;13.260;2023-02-13T10:04:44;103343.00;;;7.40
71463;BMP180;59266;52.608;13.260;2023-02-13T10:13:07;103350.00;;;7.90
71463;BMP180;59266;52.608;13.260;2023-02-13T10:15:53;103345.00;;;8.00
71463;BMP180;59266;52.608;13.260;2023-02-13T10:18:37;103351.00;;;8.00
71463;BMP180;59266;52.608;13.260;2023-02-13T10:21:07;103335.00;;;8.00
71463;BMP180;59266;52.608;13.260;2023-02-13T10:23:48;103343.00;;;8.10
71463;BMP180;59266;52.608;13.260;2023-02-13T10:26:20;103347.00;;;8.20
71463;BMP180;59266;52.608;13.260;2023-02-13T10:28:57;103341.00;;;8.30
71463;BMP180;59266;52.608;13.260;2023-02-13T10:31:44;103342.00;;;8.40
71463;BMP180;59266;52.608;13.260;2023-02-13T10:34:23;103334.00;;;8.50
71463;BMP180;59266;52.608;13.260;2023-02-13T10:36:51;103346.00;;;8.50
71463;BMP180;59266;52.608;13.260;2023-02-13T10:39:29;103340.00;;;8.50
71463;BMP180;59266;52.608;13.260;2023-02-13T10:42:16;103343.00;;;8.30
71463;BMP180;59266;52.608;13.260;2023-02-13T10:44:53;103340.00;;;8.30
71463;BMP180;59266;52.608;13.260;2023-02-13T10:50:16;103340.00;;;8.30
71463;BMP180;59266;52.608;13.260;2023-02-13T10:52:56;103323.00;;;8.30
71463;BMP180;59266;52.608;13.260;2023-02-13T11:01:45;103329.00;;;8.30
71463;BMP180;59266;52.608;13.260;2023-02-13T11:04:16;103317.00;;;8.40
71463;BMP180;59266;52.608;13.260;2023-02-13T11:06:59;103309.00;;;8.50
71463;BMP180;59266;52.608;13.260;2023-02-13T11:09:29;103311.00;;;8.40
71463;BMP180;59266;52.608;13.260;2023-02-13T11:12:22;103308.00;;;8.20
71463;BMP180;59266;52.608;13.260;2023-02-13T11:14:55;103305.00;;;8.10
71463;BMP180;59266;52.608;13.260;2023-02-13T11:17:23;103293.00;;;8.30
71463;BMP180;59266;52.608;13.260;2023-02-13T11:19:56;103305.00;;;8.30
71463;BMP180;59266;52.608;13.260;2023-02-13T11:22:29;103306.00;;;8.60
71463;BMP180;59266;52.608;13.260;2023-02-13T11:25:19;103295.00;;;8.50
71463;BMP180;59266;52.608;13.260;2023-02-13T11:28:14;103304.00;;;8.60
71463;BMP180;59266;52.608;13.260;2023-02-13T11:30:44;103307.00;;;8.60
71463;BMP180;59266;52.608;13.260;2023-02-13T11:33:22;103294.00;;;8.40
71463;BMP180;59266;52.608;13.260;2023-02-13T11:36:03;103287.00;;;8.50
71463;BMP180;59266;52.608;13.260;2023-02-13T11:38:31;103285.00;;;8.40
71463;BMP180;59266;52.608;13.260;2023-02-13T11:41:13;103281.00;;;8.60
71463;BMP180;59266;52.608;13.260;2023-02-13T11:43:48;103285.00;;;8.40
71463;BMP180;59266;52.608;13.260;2023-02-13T11:46:18;103284.00;;;8.40
71463;BMP180;59266;52.608;13.260;2023-02-13T11:49:19;103286.00;;;8.60
71463;BMP180;59266;52.608;13.260;2023-02-13T11:51:49;103283.00;;;8.60
71463;BMP180;59266;52.608;13.260;2023-02-13T11:54:23;103294.00;;;8.80
71463;BMP180;59266;52.608;13.260;2023-02-13T11:56:56;103282.00;;;8.60
71463;BMP180;59266;52.608;13.260;2023-02-13T11:59:38;103274.00;;;8.70
71463;BMP180;59266;52.608;13.260;2023-02-13T12:02:21;103266.00;;;8.90
71463;BMP180;59266;52.608;13.260;2023-02-13T12:04:50;103274.00;;;8.70
71463;BMP180;59266;52.608;13.260;2023-02-13T12:07:19;103283.00;;;8.70
71463;BMP180;59266;52.608;13.260;2023-02-13T12:10:12;103263.00;;;8.50
71463;BMP180;59266;52.608;13.260;2023-02-13T12:15:22;103280.00;;;8.40
71463;BMP180;59266;52.608;13.260;2023-02-13T12:21:04;103276.00;;;8.60
71463;BMP180;59266;52.608;13.260;2023-02-13T12:23:53;103276.00;;;8.70
71463;BMP180;59266;52.608;13.260;2023-02-13T12:26:43;103268.00;;;8.70
71463;BMP180;59266;52.608;13.260;2023-02-13T12:40:47;103278.00;;;8.90
71463;BMP180;59266;52.608;13.260;2023-02-13T12:43:29;103290.00;;;8.80
71463;BMP180;59266;52.608;13.260;2023-02-13T12:46:08;103295.00;;;8.70
71463;BMP180;59266;52.608;13.260;2023-02-13T12:57:40;103289.00;;;8.60
71463;BMP180;59266;52.608;13.260;2023-02-13T13:14:14;103277.00;;;8.80
71463;BMP180;59266;52.608;13.260;2023-02-13T13:17:07;103270.00;;;8.60
71463;BMP180;59266;52.608;13.260;2023-02-13T13:22:32;103265.00;;;8.70
71463;BMP180;59266;52.608;13.260;2023-02-13T13:25:21;103262.00;;;8.60
71463;BMP180;59266;52.608;13.260;2023-02-13T13:28:14;103272.00;;;8.70
71463;BMP180;59266;52.608;13.260;2023-02-13T13:30:43;103266.00;;;8.70
71463;BMP180;59266;52.608;13.260;2023-02-13T13:33:38;103275.00;;;8.60
71463;BMP180;59266;52.608;13.260;2023-02-13T13:36:18;103264.00;;;8.70
71463;BMP180;59266;52.608;13.260;2023-02-13T13:41:55;103280.00;;;8.60
71463;BMP180;59266;52.608;13.260;2023-02-13T13:44:44;103274.00;;;8.70
71463;BMP180;59266;52.608;13.260;2023-02-13T13:50:00;103284.00;;;8.60
71463;BMP180;59266;52.608;13.260;2023-02-13T13:52:32;103280.00;;;8.60
71463;BMP180;59266;52.608;13.260;2023-02-13T13:55:00;103284.00;;;8.70
71463;BMP180;59266;52.608;13.260;2023-02-13T14:05:29;103268.00;;;8.50
71463;BMP180;59266;52.608;13.260;2023-02-13T14:08:02;103258.00;;;8.40
71463;BMP180;59266;52.608;13.260;2023-02-13T14:13:00;103254.00;;;8.50
71463;BMP180;59266;52.608;13.260;2023-02-13T14:20:49;103249.00;;;8.50
71463;BMP180;59266;52.608;13.260;2023-02-13T14:23:25;103252.00;;;8.50
71463;BMP180;59266;52.608;13.260;2023-02-13T14:31:38;103236.00;;;8.40
71463;BMP180;59266;52.608;13.260;2023-02-13T14:36:39;103222.00;;;8.30
71463;BMP180;59266;52.608;13.260;2023-02-13T14:44:45;103229.00;;;8.40
71463;BMP180;59266;52.608;13.260;2023-02-13T14:47:31;103225.00;;;8.40
71463;BMP180;59266;52.608;13.260;2023-02-13T14:50:02;103227.00;;;8.30
71463;BMP180;59266;52.608;13.260;2023-02-13T14:52:33;103218.00;;;8.20
71463;BMP180;59266;52.608;13.260;2023-02-13T14:55:04;103223.00;;;8.20
71463;BMP180;59266;52.608;13.260;2023-02-13T14:57:38;103225.00;;;8.10
71463;BMP180;59266;52.608;13.260;2023-02-13T15:05:51;103227.00;;;8.10
71463;BMP180;59266;52.608;13.260;2023-02-13T15:08:25;103223.00;;;8.00
71463;BMP180;59266;52.608;13.260;2023-02-13T15:10:54;103224.00;;;8.00
71463;BMP180;59266;52.608;13.260;2023-02-13T15:13:32;103236.00;;;8.00
71463;BMP180;59266;52.608;13.260;2023-02-13T15:16:10;103213.00;;;8.00
71463;BMP180;59266;52.608;13.260;2023-02-13T15:18:47;103221.00;;;8.20
71463;BMP180;59266;52.608;13.260;2023-02-13T15:21:18;103218.00;;;8.20
71463;BMP180;59266;52.608;13.260;2023-02-13T15:23:51;103200.00;;;8.20
71463;BMP180;59266;52.608;13.260;2023-02-13T15:26:24;103202.00;;;8.00
71463;BMP180;59266;52.608;13.260;2023-02-13T15:29:16;103192.00;;;7.90
71463;BMP180;59266;52.608;13.260;2023-02-13T15:34:45;103184.00;;;7.90
71463;BMP180;59266;52.608;13.260;2023-02-13T15:37:25;103184.00;;;7.80
71463;BMP180;59266;52.608;13.260;2023-02-13T15:40:13;103182.00;;;7.90
71463;BMP180;59266;52.608;13.260;2023-02-13T15:42:43;103182.00;;;7.80
71463;BMP180;59266;52.608;13.260;2023-02-13T15:45:15;103185.00;;;7.80
71463;BMP180;59266;52.608;13.260;2023-02-13T15:47:46;103182.00;;;7.80
71463;BMP180;59266;52.608;13.260;2023-02-13T15:50:32;103178.00;;;7.80
71463;BMP180;59266;52.608;13.260;2023-02-13T15:53:19;103199.00;;;7.80
71463;BMP180;59266;52.608;13.260;2023-02-13T15:56:03;103177.00;;;7.80
71463;BMP180;59266;52.608;13.260;2023-02-13T15:58:33;103176.00;;;7.70
71463;BMP180;59266;52.608;13.260;2023-02-13T16:01:06;103184.00;;;7.70
71463;BMP180;59266;52.608;13.260;2023-02-13T16:03:34;103180.00;;;7.70
71463;BMP180;59266;52.608;13.260;2023-02-13T16:06:04;103180.00;;;7.60
71463;BMP180;59266;52.608;13.260;2023-02-13T16:08:37;103190.00;;;7.80
71463;BMP180;59266;52.608;13.260;2023-02-13T16:22:04;103208.00;;;7.50
71463;BMP180;59266;52.608;13.260;2023-02-13T16:24:35;103205.00;;;7.50
71463;BMP180;59266;52.608;13.260;2023-02-13T16:27:03;103208.00;;;7.60
71463;BMP180;59266;52.608;13.260;2023-02-13T16:29:30;103216.00;;;7.50
71463;BMP180;59266;52.608;13.260;2023-02-13T16:32:04;103210.00;;;7.50
71463;BMP180;59266;52.608;13.260;2023-02-13T16:34:35;103204.00;;;7.60
71463;BMP180;59266;52.608;13.260;2023-02-13T16:37:02;103200.00;;;7.60
71463;BMP180;59266;52.608;13.260;2023-02-13T16:39:31;103209.00;;;7.60
71463;BMP180;59266;52.608;13.260;2023-02-13T16:42:01;103224.00;;;7.50
71463;BMP180;59266;52.608;13.260;2023-02-13T16:44:40;103210.00;;;7.50
71463;BMP180;59266;52.608;13.260;2023-02-13T16:47:20;103203.00;;;7.40
71463;BMP180;59266;52.608;13.260;2023-02-13T16:49:53;103191.00;;;7.40